createdAt,value
2023-05-24T00:00:46.812Z,101627.31
2023-05-24T00:03:15.609Z,101620.09
2023-05-24T00:05:42.925Z,101613.91
2023-05-24T00:08:09.593Z,101618.22
2023-05-24T00:10:37.837Z,101626.00
2023-05-24T00:13:06.181Z,101622.59
2023-05-24T00:15:34.266Z,101619.03
2023-05-24T00:18:01.079Z,101610.34
2023-05-24T00:20:28.245Z,101602.75
2023-05-24T00:22:55.182Z,101618.22
2023-05-24T00:25:22.000Z,101616.63
2023-05-24T00:27:48.691Z,101572.03
2023-05-24T00:30:17.411Z,101613.56
2023-05-24T00:32:45.565Z,101620.63
2023-05-24T00:35:14.072Z,101617.91
2023-05-24T00:37:45.862Z,101617.09
2023-05-24T00:40:14.223Z,101609.47
2023-05-24T00:42:41.990Z,101604.13
2023-05-24T00:45:09.867Z,101608.34
2023-05-24T00:47:37.366Z,101597.19
2023-05-24T00:50:04.749Z,101596.03
2023-05-24T00:52:32.544Z,101599.16
2023-05-24T00:54:59.786Z,101588.44
2023-05-24T00:57:27.446Z,101584.06
2023-05-24T00:59:56.266Z,101592.88
2023-05-24T01:02:25.879Z,101592.84
2023-05-24T01:04:53.547Z,101586.06
2023-05-24T01:08:00.385Z,101587.81
2023-05-24T01:10:47.273Z,101592.66
2023-05-24T01:13:50.117Z,101589.78
2023-05-24T01:16:27.568Z,101585.66
2023-05-24T01:19:00.814Z,101579.22
2023-05-24T01:21:38.746Z,101583.84
2023-05-24T01:24:36.114Z,101590.44
2023-05-24T01:27:12.536Z,101583.84
2023-05-24T01:29:39.722Z,101569.44
2023-05-24T01:32:07.326Z,101588.16
2023-05-24T01:34:34.008Z,101598.22
2023-05-24T01:37:00.745Z,101599.63
2023-05-24T01:39:30.474Z,101588.16
2023-05-24T01:42:25.488Z,101606.09
2023-05-24T01:45:10.930Z,101602.88
2023-05-24T01:47:55.781Z,101593.47
2023-05-24T01:50:31.650Z,101590.97
2023-05-24T01:53:06.686Z,101598.06
2023-05-24T01:55:34.862Z,101597.56
2023-05-24T01:58:04.889Z,101586.50
2023-05-24T02:00:33.025Z,101595.47
2023-05-24T02:03:00.083Z,101590.03
2023-05-24T02:05:26.871Z,101595.09
2023-05-24T02:07:54.126Z,101597.38
2023-05-24T02:10:20.921Z,101602.34
2023-05-24T02:12:47.708Z,101603.13
2023-05-24T02:15:15.138Z,101597.28
2023-05-24T02:17:43.393Z,101607.53
2023-05-24T02:20:11.141Z,101608.81
2023-05-24T02:22:39.900Z,101614.91
2023-05-24T02:25:08.596Z,101619.53
2023-05-24T02:27:37.582Z,101613.88
2023-05-24T02:30:07.322Z,101614.31
2023-05-24T02:32:35.203Z,101611.66
2023-05-24T02:35:02.319Z,101615.69
2023-05-24T02:37:29.427Z,101621.84
2023-05-24T02:39:56.486Z,101611.97
2023-05-24T02:42:23.309Z,101612.91
2023-05-24T02:44:52.931Z,101617.28
2023-05-24T02:47:20.019Z,101615.38
2023-05-24T02:49:46.875Z,101622.00
2023-05-24T02:52:14.729Z,101619.13
2023-05-24T02:54:41.392Z,101613.16
2023-05-24T02:57:08.485Z,101620.81
2023-05-24T02:59:36.644Z,101628.34
2023-05-24T03:02:04.150Z,101636.97
2023-05-24T03:04:31.291Z,101615.41
2023-05-24T03:06:58.749Z,101627.16
2023-05-24T03:09:26.539Z,101630.03
2023-05-24T03:11:54.915Z,101635.38
2023-05-24T03:14:24.250Z,101638.13
2023-05-24T03:16:52.364Z,101628.50
2023-05-24T03:19:19.355Z,101627.41
2023-05-24T03:21:46.520Z,101630.34
2023-05-24T03:24:15.429Z,101644.72
2023-05-24T03:26:42.680Z,101649.19
2023-05-24T03:29:09.812Z,101641.41
2023-05-24T03:31:37.000Z,101648.13
2023-05-24T03:34:04.793Z,101652.97
2023-05-24T03:36:34.827Z,101657.56
2023-05-24T03:39:04.725Z,101663.69
2023-05-24T03:41:31.675Z,101654.88
2023-05-24T03:43:58.895Z,101651.34
2023-05-24T03:46:26.561Z,101635.94
2023-05-24T03:48:53.647Z,101638.72
2023-05-24T03:51:21.525Z,101648.16
2023-05-24T03:53:50.534Z,101662.28
2023-05-24T03:56:19.758Z,101656.97
2023-05-24T03:58:47.245Z,101649.59
2023-05-24T04:01:25.498Z,101634.41
2023-05-24T04:03:59.770Z,101632.41
2023-05-24T04:06:29.834Z,101619.25
2023-05-24T04:08:58.127Z,101647.84
2023-05-24T04:11:29.010Z,101652.31
2023-05-24T04:13:57.765Z,101646.22
2023-05-24T04:16:26.833Z,101642.44
2023-05-24T04:18:55.365Z,101644.88
2023-05-24T04:21:23.614Z,101647.91
2023-05-24T04:23:51.567Z,101641.84
2023-05-24T04:26:18.972Z,101638.03
2023-05-24T04:28:46.934Z,101646.59
2023-05-24T04:31:13.942Z,101627.03
2023-05-24T04:33:41.127Z,101647.53
2023-05-24T04:36:08.468Z,101647.09
2023-05-24T04:38:36.331Z,101645.72
2023-05-24T04:41:03.300Z,101668.25
2023-05-24T04:43:30.071Z,101646.53
2023-05-24T04:45:56.796Z,101655.22
2023-05-24T04:48:26.251Z,101670.16
2023-05-24T04:50:53.839Z,101668.75
2023-05-24T04:53:21.337Z,101664.38
2023-05-24T04:55:50.256Z,101671.56
2023-05-24T04:58:17.451Z,101637.84
2023-05-24T05:00:44.863Z,101680.25
2023-05-24T05:03:11.789Z,101692.00
2023-05-24T05:05:40.078Z,101696.19
2023-05-24T05:08:06.948Z,101689.00
2023-05-24T05:10:35.775Z,101699.38
2023-05-24T05:13:03.038Z,101701.69
2023-05-24T05:15:29.899Z,101694.44
2023-05-24T05:17:57.383Z,101703.69
2023-05-24T05:20:25.751Z,101696.97
2023-05-24T05:22:52.879Z,101706.16
2023-05-24T05:25:20.130Z,101706.97
2023-05-24T05:27:46.813Z,101697.19
2023-05-24T05:30:15.065Z,101691.38
2023-05-24T05:32:42.272Z,101714.59
2023-05-24T05:35:09.895Z,101703.50
2023-05-24T05:37:36.844Z,101697.44
2023-05-24T05:40:04.924Z,101700.44
2023-05-24T05:42:33.609Z,101706.94
2023-05-24T05:45:01.687Z,101721.53
2023-05-24T05:47:30.369Z,101727.94
2023-05-24T05:49:57.220Z,101727.34
2023-05-24T05:52:24.153Z,101718.59
2023-05-24T05:54:51.617Z,101725.13
2023-05-24T05:57:24.103Z,101722.63
2023-05-24T05:59:51.163Z,101707.06
2023-05-24T06:02:24.560Z,101696.31
2023-05-24T06:04:54.778Z,101722.53
2023-05-24T06:07:23.424Z,101719.13
2023-05-24T06:09:50.321Z,101723.41
2023-05-24T06:12:17.003Z,101720.13
2023-05-24T06:14:46.374Z,101718.66
2023-05-24T06:17:13.706Z,101700.47
2023-05-24T06:19:40.405Z,101701.94
2023-05-24T06:22:07.104Z,101697.69
2023-05-24T06:24:34.914Z,101708.19
2023-05-24T06:27:04.594Z,101695.69
2023-05-24T06:29:32.232Z,101691.84
2023-05-24T06:32:04.501Z,101708.63
2023-05-24T06:34:36.209Z,101708.91
2023-05-24T06:37:03.006Z,101701.03
2023-05-24T06:39:31.683Z,101708.19
2023-05-24T06:41:58.418Z,101703.78
2023-05-24T06:44:34.552Z,101715.88
2023-05-24T06:47:03.154Z,101709.66
2023-05-24T06:49:29.870Z,101694.47
2023-05-24T06:51:58.071Z,101706.91
2023-05-24T06:54:26.838Z,101714.75
2023-05-24T06:56:54.924Z,101724.28
2023-05-24T06:59:24.328Z,101725.78
2023-05-24T07:01:57.926Z,101717.59
2023-05-24T07:04:28.489Z,101724.41
2023-05-24T07:06:59.056Z,101726.50
2023-05-24T07:09:30.371Z,101720.34
2023-05-24T07:12:02.236Z,101723.16
2023-05-24T07:14:33.728Z,101739.97
2023-05-24T07:17:03.178Z,101744.34
2023-05-24T07:19:35.555Z,101745.78
2023-05-24T07:22:05.028Z,101750.34
2023-05-24T07:24:33.766Z,101747.69
2023-05-24T07:27:02.239Z,101754.16
2023-05-24T07:29:31.026Z,101745.66
2023-05-24T07:31:59.348Z,101753.56
2023-05-24T07:34:28.909Z,101757.41
2023-05-24T07:36:59.432Z,101754.00
2023-05-24T07:39:30.880Z,101762.09
2023-05-24T07:41:58.576Z,101758.75
2023-05-24T07:44:25.336Z,101766.84
2023-05-24T07:46:54.129Z,101767.84
2023-05-24T07:49:23.303Z,101760.09
2023-05-24T07:51:51.840Z,101768.19
2023-05-24T07:54:19.293Z,101768.38
2023-05-24T07:56:46.018Z,101768.22
2023-05-24T07:59:14.362Z,101772.88
2023-05-24T08:01:43.153Z,101775.41
2023-05-24T08:04:10.445Z,101780.63
2023-05-24T08:06:38.245Z,101770.31
2023-05-24T08:09:06.474Z,101768.56
2023-05-24T08:11:33.352Z,101778.06
2023-05-24T08:14:00.050Z,101763.66
2023-05-24T08:16:29.590Z,101764.44
2023-05-24T08:18:56.834Z,101745.03
2023-05-24T08:21:24.261Z,101763.91
2023-05-24T08:23:52.414Z,101758.63
2023-05-24T08:26:21.622Z,101765.38
2023-05-24T08:28:49.844Z,101755.19
2023-05-24T08:31:17.565Z,101761.06
2023-05-24T08:33:44.688Z,101747.22
2023-05-24T08:36:11.798Z,101743.78
2023-05-24T08:38:38.561Z,101747.91
2023-05-24T08:41:07.736Z,101763.38
2023-05-24T08:43:35.325Z,101769.94
2023-05-24T08:46:04.426Z,101774.16
2023-05-24T08:48:32.115Z,101759.84
2023-05-24T08:50:59.529Z,101757.94
2023-05-24T08:53:27.466Z,101756.63
2023-05-24T08:55:55.913Z,101760.31
2023-05-24T08:58:23.373Z,101771.47
2023-05-24T09:00:50.540Z,101769.81
2023-05-24T09:03:17.871Z,101766.41
2023-05-24T09:05:45.497Z,101754.53
2023-05-24T09:08:18.270Z,101752.63
2023-05-24T09:13:19.894Z,101760.59
2023-05-24T09:15:47.140Z,101750.97
2023-05-24T09:18:14.102Z,101750.22
2023-05-24T09:20:41.129Z,101757.94
2023-05-24T09:23:08.963Z,101764.31
2023-05-24T09:25:35.995Z,101762.16
2023-05-24T09:28:08.570Z,101775.00
2023-05-24T09:30:37.182Z,101760.25
2023-05-24T09:33:05.618Z,101761.09
2023-05-24T09:35:33.416Z,101764.44
2023-05-24T09:38:06.416Z,101754.44
2023-05-24T09:40:32.931Z,101753.88
2023-05-24T09:43:04.056Z,101753.91
2023-05-24T09:45:39.940Z,101770.19
2023-05-24T09:48:11.682Z,101762.03
2023-05-24T09:50:40.568Z,101758.31
2023-05-24T09:53:09.519Z,101766.69
2023-05-24T09:55:38.816Z,101761.38
2023-05-24T09:58:09.586Z,101771.19
2023-05-24T10:00:42.145Z,101765.91
2023-05-24T10:03:15.635Z,101782.16
2023-05-24T10:05:48.447Z,101775.59
2023-05-24T10:08:16.290Z,101771.25
2023-05-24T10:10:44.104Z,101774.19
2023-05-24T10:13:11.886Z,101766.03
2023-05-24T10:15:39.163Z,101768.41
2023-05-24T10:18:11.375Z,101758.25
2023-05-24T10:20:41.627Z,101754.97
2023-05-24T10:23:10.335Z,101753.34
2023-05-24T10:25:42.139Z,101757.91
2023-05-24T10:28:14.153Z,101760.91
2023-05-24T10:30:54.699Z,101759.50
2023-05-24T10:33:24.420Z,101766.44
2023-05-24T10:35:54.300Z,101770.03
2023-05-24T10:38:28.255Z,101775.50
2023-05-24T10:40:55.439Z,101773.66
2023-05-24T10:43:22.761Z,101761.78
2023-05-24T10:45:51.676Z,101754.94
2023-05-24T10:48:25.810Z,101768.00
2023-05-24T10:50:54.780Z,101758.91
2023-05-24T10:53:28.363Z,101763.06
2023-05-24T10:56:00.367Z,101764.59
2023-05-24T10:58:34.527Z,101764.19
2023-05-24T11:01:05.439Z,101765.88
2023-05-24T11:03:37.491Z,101772.38
2023-05-24T11:06:07.086Z,101773.34
2023-05-24T11:08:36.077Z,101766.56
2023-05-24T11:13:43.700Z,101777.69
2023-05-24T11:16:35.517Z,101790.53
2023-05-24T11:19:17.927Z,101791.16
2023-05-24T11:21:50.052Z,101799.63
2023-05-24T11:24:19.212Z,101799.63
2023-05-24T11:26:47.660Z,101788.53
2023-05-24T11:29:23.070Z,101791.22
2023-05-24T11:31:58.719Z,101801.38
2023-05-24T11:34:28.224Z,101800.00
2023-05-24T11:36:55.745Z,101809.88
2023-05-24T11:39:23.958Z,101813.06
2023-05-24T11:41:50.863Z,101798.81
2023-05-24T11:44:22.333Z,101821.25
2023-05-24T11:46:49.102Z,101814.72
2023-05-24T11:49:17.054Z,101831.56
2023-05-24T11:51:44.035Z,101808.69
2023-05-24T11:54:11.868Z,101813.16
2023-05-24T11:56:38.735Z,101818.72
2023-05-24T11:59:17.030Z,101821.00
2023-05-24T12:01:44.718Z,101823.00
2023-05-24T12:04:12.002Z,101827.69
2023-05-24T12:06:45.495Z,101832.53
2023-05-24T12:09:14.717Z,101829.94
2023-05-24T12:11:44.448Z,101821.81
2023-05-24T12:14:28.259Z,101836.66
2023-05-24T12:16:56.495Z,101824.88
2023-05-24T12:19:33.780Z,101816.41
2023-05-24T12:22:05.833Z,101823.66
2023-05-24T12:24:33.024Z,101814.44
2023-05-24T12:27:02.316Z,101811.91
2023-05-24T12:29:40.779Z,101806.94
2023-05-24T12:32:13.641Z,101797.75
2023-05-24T12:34:44.997Z,101803.13
2023-05-24T12:37:17.762Z,101812.97
2023-05-24T12:39:45.220Z,101809.88
2023-05-24T12:42:15.281Z,101811.16
2023-05-24T12:44:42.889Z,101810.50
2023-05-24T12:47:11.040Z,101795.69
2023-05-24T12:49:40.560Z,101813.19
2023-05-24T12:52:07.813Z,101813.38
2023-05-24T12:54:34.579Z,101807.69
2023-05-24T12:57:02.865Z,101807.28
2023-05-24T12:59:30.236Z,101811.50
2023-05-24T13:01:56.976Z,101816.91
2023-05-24T13:04:27.581Z,101813.69
2023-05-24T13:06:54.769Z,101816.72
2023-05-24T13:09:23.913Z,101826.97
2023-05-24T13:11:53.476Z,101812.97
2023-05-24T13:14:20.456Z,101808.25
2023-05-24T13:16:47.987Z,101816.78
2023-05-24T13:19:15.093Z,101800.97
2023-05-24T13:21:44.146Z,101811.91
2023-05-24T13:24:16.757Z,101810.78
2023-05-24T13:26:44.355Z,101806.84
2023-05-24T13:31:43.250Z,101811.44
2023-05-24T13:34:11.277Z,101810.19
2023-05-24T13:36:39.366Z,101811.41
2023-05-24T13:41:37.884Z,101820.09
2023-05-24T13:44:04.890Z,101813.78
2023-05-24T13:46:33.617Z,101804.69
2023-05-24T13:49:01.743Z,101822.53
2023-05-24T13:51:31.464Z,101820.66
2023-05-24T13:54:01.350Z,101807.91
2023-05-24T13:56:36.982Z,101826.19
2023-05-24T13:59:07.265Z,101832.91
2023-05-24T14:01:36.006Z,101836.41
2023-05-24T14:04:03.662Z,101842.66
2023-05-24T14:06:31.095Z,101840.03
2023-05-24T14:08:58.496Z,101822.69
2023-05-24T14:11:32.834Z,101837.56
2023-05-24T14:16:34.976Z,101844.97
2023-05-24T14:19:02.129Z,101829.72
2023-05-24T14:21:28.881Z,101825.28
2023-05-24T14:23:56.204Z,101831.28
2023-05-24T14:26:24.429Z,101820.50
2023-05-24T14:28:54.472Z,101827.66
2023-05-24T14:31:23.285Z,101823.22
2023-05-24T14:33:51.317Z,101832.44
2023-05-24T14:36:19.329Z,101837.44
2023-05-24T14:38:47.458Z,101842.94
2023-05-24T14:41:15.924Z,101846.50
2023-05-24T14:43:43.674Z,101847.22
2023-05-24T14:46:11.602Z,101838.22
2023-05-24T14:48:41.865Z,101842.00
2023-05-24T14:51:10.027Z,101837.69
2023-05-24T14:53:36.740Z,101831.78
2023-05-24T14:56:06.759Z,101846.66
2023-05-24T14:58:33.626Z,101856.16
2023-05-24T15:01:00.473Z,101853.69
2023-05-24T15:03:29.107Z,101869.34
2023-05-24T15:05:59.796Z,101870.09
2023-05-24T15:08:29.027Z,101869.34
2023-05-24T15:10:58.638Z,101867.94
2023-05-24T15:13:26.887Z,101887.72
2023-05-24T15:15:57.564Z,101882.94
2023-05-24T15:18:27.978Z,101890.00
2023-05-24T15:20:57.451Z,101886.28
2023-05-24T15:23:26.249Z,101885.91
2023-05-24T15:25:53.253Z,101881.72
2023-05-24T15:28:20.121Z,101886.81
2023-05-24T15:30:48.846Z,101894.75
2023-05-24T15:33:18.619Z,101906.28
2023-05-24T15:35:47.763Z,101907.38
2023-05-24T15:38:17.971Z,101898.28
2023-05-24T15:40:46.689Z,101908.38
2023-05-24T15:43:15.745Z,101898.13
2023-05-24T15:45:44.010Z,101902.41
2023-05-24T15:48:10.855Z,101917.94
2023-05-24T15:50:57.835Z,101910.06
2023-05-24T15:53:26.397Z,101908.75
2023-05-24T15:55:55.580Z,101892.81
2023-05-24T15:58:22.364Z,101908.06
2023-05-24T16:00:51.023Z,101874.66
2023-05-24T16:03:18.671Z,101913.50
2023-05-24T16:05:51.030Z,101924.78
2023-05-24T16:08:18.022Z,101924.44
2023-05-24T16:10:46.636Z,101926.50
2023-05-24T16:13:13.658Z,101919.31
2023-05-24T16:15:43.342Z,101934.47
2023-05-24T16:18:11.665Z,101934.63
2023-05-24T16:20:43.012Z,101935.59
2023-05-24T16:23:11.925Z,101943.06
2023-05-24T16:25:55.511Z,101945.69
2023-05-24T16:28:24.314Z,101946.34
2023-05-24T16:30:56.494Z,101940.34
2023-05-24T16:33:26.921Z,101945.88
2023-05-24T16:35:56.849Z,101933.41
2023-05-24T16:38:25.597Z,101950.97
2023-05-24T16:40:53.766Z,101950.47
2023-05-24T16:43:20.922Z,101941.88
2023-05-24T16:45:49.541Z,101954.19
2023-05-24T16:48:16.588Z,101948.75
2023-05-24T16:50:43.517Z,101958.94
2023-05-24T16:53:10.418Z,101948.41
2023-05-24T16:55:37.079Z,101948.56
2023-05-24T16:58:03.946Z,101945.50
2023-05-24T17:00:30.676Z,101945.47
2023-05-24T17:02:59.492Z,101946.31
2023-05-24T17:05:26.326Z,101946.41
2023-05-24T17:07:54.871Z,101954.28
2023-05-24T17:10:23.085Z,101943.47
2023-05-24T17:12:51.916Z,101955.88
2023-05-24T17:15:18.778Z,101953.03
2023-05-24T17:17:45.588Z,101952.75
2023-05-24T17:20:13.641Z,101951.72
2023-05-24T17:22:41.132Z,101963.81
2023-05-24T17:25:08.564Z,101956.16
2023-05-24T17:27:35.435Z,101956.38
2023-05-24T17:30:02.196Z,101961.06
2023-05-24T17:32:28.952Z,101967.00
2023-05-24T17:34:57.256Z,101965.81
2023-05-24T17:37:25.978Z,101981.22
2023-05-24T17:39:52.851Z,101994.53
2023-05-24T17:42:19.727Z,101996.63
2023-05-24T17:44:46.464Z,101987.59
2023-05-24T17:47:13.207Z,102005.47
2023-05-24T17:49:39.920Z,102007.41
2023-05-24T17:52:30.055Z,102017.34
2023-05-24T17:54:56.862Z,102007.00
2023-05-24T17:57:29.975Z,102020.16
2023-05-24T17:59:56.909Z,102024.44
2023-05-24T18:02:27.168Z,102028.09
2023-05-24T18:05:01.583Z,102027.59
2023-05-24T18:07:31.186Z,102035.75
2023-05-24T18:10:00.862Z,102027.47
2023-05-24T18:12:31.280Z,102024.88
2023-05-24T18:14:58.028Z,102035.00
2023-05-24T18:17:27.338Z,102049.13
2023-05-24T18:19:54.166Z,102044.84
2023-05-24T18:22:21.317Z,102047.16
2023-05-24T18:24:47.997Z,102045.34
2023-05-24T18:27:14.744Z,102043.97
2023-05-24T18:29:41.425Z,102055.81
2023-05-24T18:32:08.175Z,102061.75
2023-05-24T18:34:34.918Z,102057.91
2023-05-24T18:37:01.646Z,102070.25
2023-05-24T18:39:28.354Z,102036.41
2023-05-24T18:41:55.106Z,102068.91
2023-05-24T18:44:21.899Z,102079.78
2023-05-24T18:46:48.667Z,102090.63
2023-05-24T18:49:15.672Z,102074.00
2023-05-24T18:51:42.394Z,102077.34
2023-05-24T18:54:09.134Z,102087.22
2023-05-24T18:56:35.958Z,102093.97
2023-05-24T18:59:02.645Z,102098.41
2023-05-24T19:01:29.403Z,102092.13
2023-05-24T19:03:56.194Z,102098.63
2023-05-24T19:06:23.259Z,102096.06
2023-05-24T19:08:49.983Z,102105.91
2023-05-24T19:11:16.689Z,102102.63
2023-05-24T19:13:43.380Z,102110.09
2023-05-24T19:16:17.275Z,102113.66
2023-05-24T19:18:45.032Z,102115.50
2023-05-24T19:21:12.433Z,102119.69
2023-05-24T19:23:40.649Z,102120.22
2023-05-24T19:26:07.338Z,102132.34
2023-05-24T19:28:37.776Z,102137.09
2023-05-24T19:31:04.791Z,102140.53
2023-05-24T19:33:31.482Z,102146.09
2023-05-24T19:35:58.177Z,102151.38
2023-05-24T19:38:24.830Z,102151.88
2023-05-24T19:40:51.541Z,102151.19
2023-05-24T19:43:18.259Z,102148.53
2023-05-24T19:45:45.224Z,102162.81
2023-05-24T19:48:12.613Z,102149.31
2023-05-24T19:50:40.644Z,102171.00
2023-05-24T19:53:07.366Z,102171.97
2023-05-24T19:55:34.040Z,102170.94
2023-05-24T19:58:00.781Z,102169.47
2023-05-24T20:00:27.506Z,102177.28
2023-05-24T20:02:54.252Z,102179.88
2023-05-24T20:05:21.094Z,102168.94
2023-05-24T20:07:47.930Z,102170.19
2023-05-24T20:10:14.726Z,102187.81
2023-05-24T20:12:42.807Z,102189.19
2023-05-24T20:15:15.243Z,102201.47
2023-05-24T20:17:46.293Z,102205.84
2023-05-24T20:20:18.693Z,102207.97
2023-05-24T20:22:45.882Z,102195.56
2023-05-24T20:25:12.577Z,102210.81
2023-05-24T20:27:41.855Z,102214.38
2023-05-24T20:30:09.669Z,102221.16
2023-05-24T20:32:36.391Z,102213.72
2023-05-24T20:35:03.826Z,102229.22
2023-05-24T20:37:30.590Z,102229.56
2023-05-24T20:39:57.470Z,102249.97
2023-05-24T20:42:26.004Z,102257.06
2023-05-24T20:44:52.793Z,102248.50
2023-05-24T20:47:19.618Z,102243.44
2023-05-24T20:49:49.171Z,102241.69
2023-05-24T20:52:16.400Z,102258.22
2023-05-24T20:54:43.209Z,102263.44
2023-05-24T20:57:10.228Z,102269.59
2023-05-24T20:59:36.962Z,102265.31
2023-05-24T21:02:03.718Z,102291.47
2023-05-24T21:04:30.514Z,102278.56
2023-05-24T21:06:57.151Z,102277.69
2023-05-24T21:09:23.816Z,102276.97
2023-05-24T21:11:50.734Z,102284.41
2023-05-24T21:14:17.524Z,102288.69
2023-05-24T21:16:44.303Z,102290.13
2023-05-24T21:19:10.971Z,102297.31
2023-05-24T21:21:37.772Z,102289.09
2023-05-24T21:24:04.584Z,102287.53
2023-05-24T21:26:31.358Z,102285.63
2023-05-24T21:28:58.118Z,102265.19
2023-05-24T21:31:25.948Z,102299.84
2023-05-24T21:33:58.110Z,102299.00
2023-05-24T21:36:24.861Z,102297.31
2023-05-24T21:38:51.547Z,102298.25
2023-05-24T21:41:18.361Z,102309.78
2023-05-24T21:43:45.033Z,102285.63
2023-05-24T21:46:11.748Z,102294.94
2023-05-24T21:48:38.467Z,102310.50
2023-05-24T21:51:05.195Z,102307.38
2023-05-24T21:53:32.152Z,102294.34
2023-05-24T21:55:58.818Z,102319.53
2023-05-24T21:58:25.476Z,102313.53
2023-05-24T22:00:52.402Z,102313.22
2023-05-24T22:03:19.175Z,102311.38
2023-05-24T22:05:46.153Z,102317.44
2023-05-24T22:08:12.969Z,102318.56
2023-05-24T22:10:39.620Z,102316.78
2023-05-24T22:13:06.859Z,102328.53
2023-05-24T22:15:33.561Z,102325.69
2023-05-24T22:18:01.596Z,102332.06
2023-05-24T22:20:30.539Z,102321.50
2023-05-24T22:22:58.882Z,102321.69
2023-05-24T22:25:25.625Z,102326.44
2023-05-24T22:27:55.695Z,102328.31
2023-05-24T22:30:22.662Z,102327.50
2023-05-24T22:32:49.553Z,102342.66
2023-05-24T22:35:16.561Z,102337.31
2023-05-24T22:37:43.251Z,102304.59
2023-05-24T22:40:10.361Z,102345.44
2023-05-24T22:42:37.060Z,102347.50
2023-05-24T22:45:04.164Z,102338.75
2023-05-24T22:47:33.405Z,102344.63
2023-05-24T22:50:02.080Z,102347.31
2023-05-24T22:52:30.344Z,102346.50
2023-05-24T22:54:57.085Z,102348.34
2023-05-24T22:57:23.846Z,102353.69
2023-05-24T22:59:50.576Z,102354.41
2023-05-24T23:02:17.332Z,102352.69
2023-05-24T23:04:47.478Z,102339.78
2023-05-24T23:07:17.658Z,102360.97
2023-05-24T23:09:44.547Z,102348.03
2023-05-24T23:12:12.045Z,102354.34
2023-05-24T23:14:41.729Z,102360.34
2023-05-24T23:17:17.207Z,102359.44
2023-05-24T23:19:43.955Z,102359.50
2023-05-24T23:22:23.652Z,102359.72
2023-05-24T23:24:50.421Z,102353.72
2023-05-24T23:27:17.415Z,102366.00
2023-05-24T23:29:44.200Z,102349.97
2023-05-24T23:32:10.985Z,102370.19
2023-05-24T23:34:38.080Z,102367.72
2023-05-24T23:37:05.503Z,102365.97
2023-05-24T23:39:32.425Z,102356.66
2023-05-24T23:41:59.140Z,102355.63
2023-05-24T23:44:25.996Z,102359.97
2023-05-24T23:46:53.557Z,102359.09
2023-05-24T23:49:20.693Z,102360.03
2023-05-24T23:51:47.731Z,102356.59
2023-05-24T23:54:19.276Z,102348.84
2023-05-24T23:56:46.146Z,102355.25
2023-05-24T23:59:13.022Z,102355.13
